Sunday, November 19, 2017, 4:59 AM GMT
Back to Local

CWZQ, Grand Etang, N. S.

Location: , , Canada Lat: 46.55
Local Time: 4:59 AM GMT ( 4:59 GMT) Lon: -61.05
Time Zone: GMT Elev: 42 ft

Show me the last for .
Show Coded

Time T Td Feel RH Dir Speed Gust Alt SLP Vis Weather Sky Remarks
2017-11-19 04:40 40 37 32 89 300° 14 - - - 0 None
2017-11-19 04:20 39 38 32 93 310° 13 - - - 0 None
2017-11-19 04:00 40 38 32 91 310° 15 - - 29.74 0 Peak wind: 23 mph (20 kts) from 310° at 10 min
2017-11-19 03:40 40 38 32 93 310° 15 - - - 0 None
2017-11-19 03:20 40 37 29 91 310° 16 23 - - 0 None
2017-11-19 03:00 40 38 30 95 310° 20 - - 29.73 0 Peak wind: 21 mph (19 kts) from 300° at 50 min
2017-11-19 02:40 39 38 30 94 300° 18 - - - 0 None
2017-11-19 02:20 40 38 31 93 310° 16 - - - 0 None
2017-11-19 02:00 40 39 30 96 290° 20 - - 29.75 0 Peak wind: 25 mph (22 kts) from 280° at 28 min
2017-11-19 01:40 40 39 30 97 290° 21 - - - 0 None
2017-11-19 01:20 40 39 31 95 300° 18 - - - 0 None
2017-11-19 01:00 40 39 32 95 300° 16 - - 29.73 0 Peak wind: 21 mph (19 kts) from 330° at 04 min
2017-11-19 00:40 40 39 31 97 300° 17 - - - 0 None
2017-11-19 00:20 40 38 33 92 320° 13 - - - 0 None
2017-11-19 00:00 38 38 28 100 320° 20 - - 29.72 0 Peak wind: 26 mph (23 kts) from 300° at 28 min
2017-11-18 23:40 40 39 30 94 300° 20 25 - - 0 None
2017-11-18 23:20 41 38 32 90 310° 18 - - - 0 None
2017-11-18 23:00 41 39 31 91 300° 23 - - 29.70 0 Peak wind: 28 mph (25 kts) from 320° at 32 min
2017-11-18 22:40 41 41 31 97 320° 23 29 - - 0 None
2017-11-18 22:20 42 38 31 88 310° 22 28 - - 0 None
2017-11-18 22:00 42 40 32 95 320° 24 - - 29.66 0 Peak wind: 31 mph (27 kts) from 310° at 09 min
2017-11-18 21:40 42 41 31 97 320° 22 28 - - 0 None
2017-11-18 21:20 42 40 32 93 310° 25 - - - 0 None
2017-11-18 21:00 42 41 32 95 310° 25 - - 29.64 0 Peak wind: 33 mph (29 kts) from 310° at 36 min
2017-11-18 20:40 42 41 31 94 310° 26 33 - - 0 None
2017-11-18 20:20 42 40 31 93 320° 26 32 - - 0 None
2017-11-18 20:00 42 41 31 93 330° 25 31 - 29.62 0 Peak wind: 34 mph (30 kts) from 330° at 20 min
2017-11-18 19:40 42 40 31 91 320° 26 32 - - 0 None
2017-11-18 19:20 42 41 31 95 320° 26 33 - - 0 None
2017-11-18 19:00 42 41 31 95 320° 26 32 - 29.59 0 Peak wind: 35 mph (31 kts) from 320° at 16 min
2017-11-18 18:40 42 41 31 95 320° 28 33 - - 0 None
2017-11-18 18:20 42 41 31 95 320° 28 36 - - 0 None
2017-11-18 18:00 42 41 31 95 320° 30 - - 29.58 0 Peak wind: 41 mph (36 kts) from 310° at 00 min
2017-11-18 17:40 40 40 28 99 320° 30 36 - - 0 None
2017-11-18 17:20 40 40 27 101 310° 31 40 - - 0 None
2017-11-18 17:00 42 40 30 93 310° 32 40 - 29.56 0 Peak wind: 43 mph (38 kts) from 310° at 01 min
2017-11-18 16:40 42 41 29 97 300° 32 41 - - 0 None
2017-11-18 16:20 42 41 29 96 300° 35 43 - - 0 None
2017-11-18 16:00 42 41 29 97 300° 33 43 - 29.53 0 Peak wind: 43 mph (38 kts) from 290° at 17 min
2017-11-18 15:40 42 40 29 92 300° 33 41 - - 0 None
2017-11-18 15:20 42 41 29 95 300° 35 44 - - 0 None
2017-11-18 15:00 42 40 29 95 300° 36 44 - 29.52 0 Peak wind: 43 mph (38 kts) from 300° at 51 min
2017-11-18 14:40 40 41 27 103 300° 33 41 - - 0 None
2017-11-18 14:20 42 41 29 95 300° 35 43 - - 0 None
2017-11-18 14:00 42 40 29 94 300° 36 45 - 29.49 0 Peak wind: 44 mph (39 kts) from 300° at 11 min
2017-11-18 13:40 41 38 28 88 290° 35 44 - - 0 None
2017-11-18 13:20 42 41 29 97 300° 36 45 - - 0 None
2017-11-18 13:00 41 41 28 97 290° 35 43 - 29.46 0 Peak wind: 47 mph (41 kts) from 290° at 44 min
2017-11-18 12:40 42 41 29 96 290° 35 43 - - 0 None
2017-11-18 12:20 41 39 28 92 290° 35 44 - - 0 None
2017-11-18 12:00 42 42 29 100 280° 35 43 - 29.45 0 Peak wind: 42 mph (37 kts) from 280° at 49 min
2017-11-18 11:40 41 39 28 94 280° 35 41 - - 0 None
2017-11-18 11:20 41 38 28 90 290° 35 41 - - 0 None
2017-11-18 11:00 41 40 28 98 290° 36 43 - 29.41 0 Peak wind: 46 mph (40 kts) from 280° at 11 min
2017-11-18 10:40 41 41 28 99 290° 33 41 - - 0 None
2017-11-18 10:20 41 41 28 98 290° 39 46 - - 0 None
2017-11-18 10:00 41 41 28 97 300° 33 45 - 29.38 0 Peak wind: 44 mph (39 kts) from 290° at 57 min
2017-11-18 09:00 41 40 28 95 290° 36 45 - 29.36 0 Peak wind: 47 mph (41 kts) from 290° at 03 min
2017-11-18 08:40 41 39 29 92 290° 35 41 - - 0 None
2017-11-18 08:20 40 41 27 103 290° 33 41 - - 0 None
2017-11-18 08:00 42 40 29 95 280° 36 44 - 29.35 0 Peak wind: 47 mph (41 kts) from 290° at 17 min
2017-11-18 06:40 42 40 29 95 280° 35 43 - - 0 None
2017-11-18 06:20 42 41 30 95 270° 31 38 - - 0 None
2017-11-18 06:00 42 40 29 93 270° 31 40 - 29.32 0 Peak wind: 40 mph (35 kts) from 270° at 54 min
2017-11-18 05:40 40 41 27 102 270° 32 39 - - 0 None
2017-11-18 05:20 42 40 30 92 260° 30 37 - - 0 None
2017-11-18 05:00 40 41 28 103 260° 30 36 - 29.30 0 Peak wind: 40 mph (35 kts) from 260° at 40 min

Support USWX by starting your Amazon purchase here.